sensor_id;sensor_type;location;lat;lon;timestamp;pressure;altitude;pressure_sealevel;temperature;humidity
68656;BME280;55638;51.122;13.606;2023-05-20T00:00:27;100884.91;;;12.22;48.92
68656;BME280;55638;51.122;13.606;2023-05-20T00:01:59;100885.88;;;12.21;48.90
68656;BME280;55638;51.122;13.606;2023-05-20T00:03:30;100887.72;;;12.21;48.98
68656;BME280;55638;51.122;13.606;2023-05-20T00:05:03;100888.69;;;12.20;49.02
68656;BME280;55638;51.122;13.606;2023-05-20T00:06:35;100879.75;;;12.19;49.01
68656;BME280;55638;51.122;13.606;2023-05-20T00:08:07;100882.53;;;12.18;48.99
68656;BME280;55638;51.122;13.606;2023-05-20T00:09:40;100888.94;;;12.17;49.14
68656;BME280;55638;51.122;13.606;2023-05-20T00:11:11;100887.19;;;12.16;49.03
68656;BME280;55638;51.122;13.606;2023-05-20T00:12:43;100887.34;;;12.14;49.11
68656;BME280;55638;51.122;13.606;2023-05-20T00:14:15;100890.91;;;12.15;49.18
68656;BME280;55638;51.122;13.606;2023-05-20T00:15:47;100895.44;;;12.14;48.95
68656;BME280;55638;51.122;13.606;2023-05-20T00:17:19;100886.59;;;12.12;49.12
68656;BME280;55638;51.122;13.606;2023-05-20T00:18:51;100886.72;;;12.11;49.20
68656;BME280;55638;51.122;13.606;2023-05-20T00:20:22;100887.47;;;12.13;48.82
68656;BME280;55638;51.122;13.606;2023-05-20T00:21:55;100886.59;;;12.12;49.02
68656;BME280;55638;51.122;13.606;2023-05-20T00:23:28;100885.00;;;12.10;49.14
68656;BME280;55638;51.122;13.606;2023-05-20T00:25:00;100880.72;;;12.07;49.25
68656;BME280;55638;51.122;13.606;2023-05-20T00:26:32;100886.09;;;12.07;49.16
68656;BME280;55638;51.122;13.606;2023-05-20T00:28:05;100878.97;;;12.06;49.22
68656;BME280;55638;51.122;13.606;2023-05-20T00:29:37;100875.31;;;12.07;49.12
68656;BME280;55638;51.122;13.606;2023-05-20T00:31:09;100878.25;;;12.04;49.18
68656;BME280;55638;51.122;13.606;2023-05-20T00:32:41;100873.81;;;12.03;49.23
68656;BME280;55638;51.122;13.606;2023-05-20T00:34:14;100871.38;;;12.00;49.34
68656;BME280;55638;51.122;13.606;2023-05-20T00:35:45;100868.78;;;11.98;49.27
68656;BME280;55638;51.122;13.606;2023-05-20T00:37:17;100867.28;;;11.94;49.59
68656;BME280;55638;51.122;13.606;2023-05-20T00:38:49;100879.09;;;11.93;49.38
68656;BME280;55638;51.122;13.606;2023-05-20T00:40:22;100871.22;;;11.90;49.39
68656;BME280;55638;51.122;13.606;2023-05-20T00:41:55;100869.63;;;11.88;49.44
68656;BME280;55638;51.122;13.606;2023-05-20T00:43:31;100868.00;;;11.85;49.24
68656;BME280;55638;51.122;13.606;2023-05-20T00:45:03;100867.41;;;11.81;49.55
68656;BME280;55638;51.122;13.606;2023-05-20T00:46:35;100871.31;;;11.77;49.43
68656;BME280;55638;51.122;13.606;2023-05-20T00:48:07;100878.78;;;11.74;49.62
68656;BME280;55638;51.122;13.606;2023-05-20T00:49:40;100879.88;;;11.71;49.46
68656;BME280;55638;51.122;13.606;2023-05-20T00:51:13;100881.09;;;11.67;49.79
68656;BME280;55638;51.122;13.606;2023-05-20T00:52:45;100884.88;;;11.65;49.85
68656;BME280;55638;51.122;13.606;2023-05-20T00:54:19;100881.56;;;11.61;49.75
68656;BME280;55638;51.122;13.606;2023-05-20T00:55:51;100877.34;;;11.57;50.03
68656;BME280;55638;51.122;13.606;2023-05-20T00:57:23;100879.19;;;11.56;49.98
68656;BME280;55638;51.122;13.606;2023-05-20T00:58:56;100884.84;;;11.53;50.32
68656;BME280;55638;51.122;13.606;2023-05-20T01:00:28;100887.66;;;11.52;50.17
68656;BME280;55638;51.122;13.606;2023-05-20T01:02:04;100885.91;;;11.51;50.31
68656;BME280;55638;51.122;13.606;2023-05-20T01:03:36;100885.06;;;11.50;50.18
68656;BME280;55638;51.122;13.606;2023-05-20T01:05:08;100878.72;;;11.51;50.11
68656;BME280;55638;51.122;13.606;2023-05-20T01:06:40;100877.81;;;11.51;50.17
68656;BME280;55638;51.122;13.606;2023-05-20T01:08:12;100875.25;;;11.49;50.33
68656;BME280;55638;51.122;13.606;2023-05-20T01:09:44;100862.84;;;11.47;50.47
68656;BME280;55638;51.122;13.606;2023-05-20T01:11:23;100867.63;;;11.43;51.10
68656;BME280;55638;51.122;13.606;2023-05-20T01:12:58;100867.63;;;11.43;50.55
68656;BME280;55638;51.122;13.606;2023-05-20T01:14:36;100871.31;;;11.42;50.95
68656;BME280;55638;51.122;13.606;2023-05-20T01:16:10;100869.59;;;11.41;50.60
68656;BME280;55638;51.122;13.606;2023-05-20T01:17:45;100875.00;;;11.41;50.92
68656;BME280;55638;51.122;13.606;2023-05-20T01:19:34;100876.19;;;11.37;51.41
68656;BME280;55638;51.122;13.606;2023-05-20T01:21:10;100874.25;;;11.39;50.74
68656;BME280;55638;51.122;13.606;2023-05-20T01:22:52;100877.94;;;11.38;51.59
68656;BME280;55638;51.122;13.606;2023-05-20T01:24:24;100873.47;;;11.37;50.69
68656;BME280;55638;51.122;13.606;2023-05-20T01:25:56;100877.16;;;11.36;50.86
68656;BME280;55638;51.122;13.606;2023-05-20T01:27:28;100876.31;;;11.35;50.93
68656;BME280;55638;51.122;13.606;2023-05-20T01:29:00;100880.97;;;11.33;50.92
68656;BME280;55638;51.122;13.606;2023-05-20T01:30:41;100875.69;;;11.32;51.45
68656;BME280;55638;51.122;13.606;2023-05-20T01:32:21;100872.13;;;11.31;50.88
68656;BME280;55638;51.122;13.606;2023-05-20T01:33:55;100873.94;;;11.31;50.94
68656;BME280;55638;51.122;13.606;2023-05-20T01:35:29;100874.19;;;11.28;50.83
68656;BME280;55638;51.122;13.606;2023-05-20T01:37:02;100877.88;;;11.27;51.04
68656;BME280;55638;51.122;13.606;2023-05-20T01:38:35;100875.28;;;11.25;50.91
68656;BME280;55638;51.122;13.606;2023-05-20T01:40:11;100873.69;;;11.23;51.35
68656;BME280;55638;51.122;13.606;2023-05-20T01:41:45;100878.31;;;11.21;50.90
68656;BME280;55638;51.122;13.606;2023-05-20T01:43:19;100883.94;;;11.18;51.01
68656;BME280;55638;51.122;13.606;2023-05-20T01:44:51;100877.81;;;11.16;51.02
68656;BME280;55638;51.122;13.606;2023-05-20T01:46:23;100877.19;;;11.12;51.02
68656;BME280;55638;51.122;13.606;2023-05-20T01:47:56;100882.69;;;11.10;51.09
68656;BME280;55638;51.122;13.606;2023-05-20T01:49:28;100881.06;;;11.08;51.13
68656;BME280;55638;51.122;13.606;2023-05-20T01:51:00;100886.59;;;11.06;51.48
68656;BME280;55638;51.122;13.606;2023-05-20T01:52:32;100883.16;;;11.04;51.54
68656;BME280;55638;51.122;13.606;2023-05-20T01:54:04;100880.59;;;11.03;51.55
68656;BME280;55638;51.122;13.606;2023-05-20T01:55:36;100880.59;;;11.03;51.52
68656;BME280;55638;51.122;13.606;2023-05-20T01:57:08;100886.81;;;11.03;51.54
68656;BME280;55638;51.122;13.606;2023-05-20T01:58:40;100877.88;;;11.03;51.55
68656;BME280;55638;51.122;13.606;2023-05-20T02:00:12;100883.28;;;11.03;51.58
68656;BME280;55638;51.122;13.606;2023-05-20T02:01:44;100871.63;;;11.02;51.68
68656;BME280;55638;51.122;13.606;2023-05-20T02:03:19;100882.28;;;11.04;51.67
68656;BME280;55638;51.122;13.606;2023-05-20T02:04:52;100878.75;;;11.03;51.82
68656;BME280;55638;51.122;13.606;2023-05-20T02:06:24;100876.03;;;11.03;52.05
68656;BME280;55638;51.122;13.606;2023-05-20T02:07:58;100874.09;;;11.05;51.86
68656;BME280;55638;51.122;13.606;2023-05-20T02:09:30;100873.22;;;11.05;52.06
68656;BME280;55638;51.122;13.606;2023-05-20T02:11:02;100868.56;;;11.07;52.04
68656;BME280;55638;51.122;13.606;2023-05-20T02:12:33;100874.97;;;11.06;52.01
68656;BME280;55638;51.122;13.606;2023-05-20T02:14:05;100868.56;;;11.07;52.00
68656;BME280;55638;51.122;13.606;2023-05-20T02:15:40;100871.28;;;11.07;52.50
68656;BME280;55638;51.122;13.606;2023-05-20T02:17:13;100872.97;;;11.08;52.02
68656;BME280;55638;51.122;13.606;2023-05-20T02:18:47;100878.38;;;11.08;51.98
68656;BME280;55638;51.122;13.606;2023-05-20T02:20:20;100877.28;;;11.10;51.94
68656;BME280;55638;51.122;13.606;2023-05-20T02:21:52;100871.03;;;11.10;52.14
68656;BME280;55638;51.122;13.606;2023-05-20T02:23:24;100866.50;;;11.10;52.01
68656;BME280;55638;51.122;13.606;2023-05-20T02:24:56;100868.34;;;11.10;51.87
68656;BME280;55638;51.122;13.606;2023-05-20T02:26:28;100872.88;;;11.09;52.12
68656;BME280;55638;51.122;13.606;2023-05-20T02:28:00;100869.34;;;11.09;52.21
68656;BME280;55638;51.122;13.606;2023-05-20T02:29:36;100866.63;;;11.09;52.18
68656;BME280;55638;51.122;13.606;2023-05-20T02:31:08;100871.03;;;11.10;52.00
68656;BME280;55638;51.122;13.606;2023-05-20T02:32:40;100863.03;;;11.08;51.98
68656;BME280;55638;51.122;13.606;2023-05-20T02:34:12;100865.75;;;11.08;52.11
68656;BME280;55638;51.122;13.606;2023-05-20T02:35:44;100875.44;;;11.11;51.97
68656;BME280;55638;51.122;13.606;2023-05-20T02:37:18;100873.50;;;11.13;51.96
68656;BME280;55638;51.122;13.606;2023-05-20T02:38:49;100872.75;;;11.11;52.24
68656;BME280;55638;51.122;13.606;2023-05-20T02:40:21;100869.34;;;11.09;52.33
68656;BME280;55638;51.122;13.606;2023-05-20T02:41:53;100868.44;;;11.08;52.28
68656;BME280;55638;51.122;13.606;2023-05-20T02:43:25;100870.41;;;11.06;52.44
68656;BME280;55638;51.122;13.606;2023-05-20T02:44:57;100874.97;;;11.06;52.53
68656;BME280;55638;51.122;13.606;2023-05-20T02:46:30;100874.97;;;11.06;52.50
68656;BME280;55638;51.122;13.606;2023-05-20T02:48:03;100867.81;;;11.05;52.37
68656;BME280;55638;51.122;13.606;2023-05-20T02:49:35;100866.09;;;11.04;52.41
68656;BME280;55638;51.122;13.606;2023-05-20T02:51:07;100863.41;;;11.04;52.40
68656;BME280;55638;51.122;13.606;2023-05-20T02:52:39;100853.59;;;11.03;52.31
68656;BME280;55638;51.122;13.606;2023-05-20T02:54:13;100848.31;;;11.01;52.26
68656;BME280;55638;51.122;13.606;2023-05-20T02:55:45;100852.84;;;11.01;52.37
68656;BME280;55638;51.122;13.606;2023-05-20T02:57:21;100851.22;;;10.98;52.39
68656;BME280;55638;51.122;13.606;2023-05-20T02:58:53;100849.66;;;10.96;52.35
68656;BME280;55638;51.122;13.606;2023-05-20T03:00:25;100843.50;;;10.94;52.34
68656;BME280;55638;51.122;13.606;2023-05-20T03:01:59;100848.97;;;10.92;52.19
68656;BME280;55638;51.122;13.606;2023-05-20T03:03:31;100850.09;;;10.89;52.37
68656;BME280;55638;51.122;13.606;2023-05-20T03:05:04;100836.94;;;10.85;52.37
68656;BME280;55638;51.122;13.606;2023-05-20T03:06:36;100838.78;;;10.84;52.13
68656;BME280;55638;51.122;13.606;2023-05-20T03:08:09;100837.16;;;10.82;52.48
68656;BME280;55638;51.122;13.606;2023-05-20T03:09:41;100829.44;;;10.77;52.62
68656;BME280;55638;51.122;13.606;2023-05-20T03:11:13;100823.28;;;10.75;52.49
68656;BME280;55638;51.122;13.606;2023-05-20T03:12:45;100822.66;;;10.72;52.76
68656;BME280;55638;51.122;13.606;2023-05-20T03:14:17;100820.19;;;10.69;52.74
68656;BME280;55638;51.122;13.606;2023-05-20T03:15:49;100815.84;;;10.66;52.58
68656;BME280;55638;51.122;13.606;2023-05-20T03:17:21;100818.75;;;10.63;52.82
68656;BME280;55638;51.122;13.606;2023-05-20T03:18:53;100813.63;;;10.60;52.76
68656;BME280;55638;51.122;13.606;2023-05-20T03:20:25;100824.50;;;10.58;52.88
68656;BME280;55638;51.122;13.606;2023-05-20T03:22:00;100828.28;;;10.56;52.81
68656;BME280;55638;51.122;13.606;2023-05-20T03:23:32;100830.25;;;10.54;52.94
68656;BME280;55638;51.122;13.606;2023-05-20T03:25:04;100833.03;;;10.52;53.05
68656;BME280;55638;51.122;13.606;2023-05-20T03:26:36;100834.25;;;10.48;53.16
68656;BME280;55638;51.122;13.606;2023-05-20T03:28:13;100838.88;;;10.46;53.33
68656;BME280;55638;51.122;13.606;2023-05-20T03:29:45;100844.38;;;10.45;53.41
68656;BME280;55638;51.122;13.606;2023-05-20T03:31:19;100838.00;;;10.46;53.42
68656;BME280;55638;51.122;13.606;2023-05-20T03:32:54;100839.94;;;10.43;54.03
68656;BME280;55638;51.122;13.606;2023-05-20T03:34:28;100839.09;;;10.43;53.59
68656;BME280;55638;51.122;13.606;2023-05-20T03:36:01;100844.38;;;10.45;53.61
68656;BME280;55638;51.122;13.606;2023-05-20T03:37:33;100839.00;;;10.45;53.83
68656;BME280;55638;51.122;13.606;2023-05-20T03:39:04;100849.78;;;10.45;54.06
68656;BME280;55638;51.122;13.606;2023-05-20T03:40:37;100840.72;;;10.46;54.19
68656;BME280;55638;51.122;13.606;2023-05-20T03:42:09;100842.41;;;10.47;54.47
68656;BME280;55638;51.122;13.606;2023-05-20T03:43:41;100845.78;;;10.50;54.22
68656;BME280;55638;51.122;13.606;2023-05-20T03:45:14;100846.50;;;10.52;54.38
68656;BME280;55638;51.122;13.606;2023-05-20T03:46:55;100841.75;;;10.56;54.36
68656;BME280;55638;51.122;13.606;2023-05-20T03:48:27;100843.28;;;10.60;54.37
68656;BME280;55638;51.122;13.606;2023-05-20T03:49:59;100844.75;;;10.64;54.20
68656;BME280;55638;51.122;13.606;2023-05-20T03:51:33;100848.13;;;10.68;54.23
68656;BME280;55638;51.122;13.606;2023-05-20T03:53:10;100850.59;;;10.71;54.28
68656;BME280;55638;51.122;13.606;2023-05-20T03:54:44;100844.00;;;10.75;54.37
68656;BME280;55638;51.122;13.606;2023-05-20T03:56:16;100857.25;;;10.78;54.38
68656;BME280;55638;51.122;13.606;2023-05-20T03:57:48;100851.50;;;10.82;54.43
68656;BME280;55638;51.122;13.606;2023-05-20T03:59:20;100858.28;;;10.88;54.36
68656;BME280;55638;51.122;13.606;2023-05-20T04:00:52;100857.97;;;10.93;54.29
68656;BME280;55638;51.122;13.606;2023-05-20T04:02:24;100858.59;;;10.96;54.36
68656;BME280;55638;51.122;13.606;2023-05-20T04:03:56;100849.28;;;11.00;54.26
68656;BME280;55638;51.122;13.606;2023-05-20T04:05:28;100850.78;;;11.04;54.17
68656;BME280;55638;51.122;13.606;2023-05-20T04:07:01;100850.53;;;11.07;54.32
68656;BME280;55638;51.122;13.606;2023-05-20T04:08:35;100850.94;;;11.14;54.16
68656;BME280;55638;51.122;13.606;2023-05-20T04:10:07;100848.88;;;11.18;53.98
68656;BME280;55638;51.122;13.606;2023-05-20T04:11:40;100843.25;;;11.21;53.97
68656;BME280;55638;51.122;13.606;2023-05-20T04:13:11;100845.59;;;11.25;54.04
68656;BME280;55638;51.122;13.606;2023-05-20T04:14:45;100845.25;;;11.30;54.01
68656;BME280;55638;51.122;13.606;2023-05-20T04:16:16;100845.00;;;11.33;53.98
68656;BME280;55638;51.122;13.606;2023-05-20T04:17:48;100841.94;;;11.38;53.72
68656;BME280;55638;51.122;13.606;2023-05-20T04:19:21;100844.53;;;11.39;53.91
68656;BME280;55638;51.122;13.606;2023-05-20T04:20:55;100837.06;;;11.43;53.82
68656;BME280;55638;51.122;13.606;2023-05-20T04:22:27;100840.38;;;11.46;53.83
68656;BME280;55638;51.122;13.606;2023-05-20T04:23:59;100845.56;;;11.49;53.79
68656;BME280;55638;51.122;13.606;2023-05-20T04:25:31;100854.28;;;11.53;53.75
68656;BME280;55638;51.122;13.606;2023-05-20T04:27:04;100846.94;;;11.55;53.66
68656;BME280;55638;51.122;13.606;2023-05-20T04:28:36;100853.94;;;11.57;53.51
68656;BME280;55638;51.122;13.606;2023-05-20T04:30:09;100858.13;;;11.62;53.73
68656;BME280;55638;51.122;13.606;2023-05-20T04:31:45;100850.72;;;11.64;53.57
68656;BME280;55638;51.122;13.606;2023-05-20T04:33:17;100852.34;;;11.66;53.49
68656;BME280;55638;51.122;13.606;2023-05-20T04:34:49;100853.94;;;11.69;53.76
68656;BME280;55638;51.122;13.606;2023-05-20T04:36:22;100854.56;;;11.72;53.66
68656;BME280;55638;51.122;13.606;2023-05-20T04:37:59;100857.91;;;11.76;53.62
68656;BME280;55638;51.122;13.606;2023-05-20T04:39:32;100850.56;;;11.78;53.65
68656;BME280;55638;51.122;13.606;2023-05-20T04:41:05;100851.19;;;11.81;53.79
68656;BME280;55638;51.122;13.606;2023-05-20T04:42:37;100851.81;;;11.85;53.59
68656;BME280;55638;51.122;13.606;2023-05-20T04:44:10;100848.13;;;11.86;53.53
68656;BME280;55638;51.122;13.606;2023-05-20T04:45:42;100858.56;;;11.91;53.67
68656;BME280;55638;51.122;13.606;2023-05-20T04:47:15;100857.34;;;11.95;53.38
68656;BME280;55638;51.122;13.606;2023-05-20T04:48:47;100860.78;;;11.97;53.46
68656;BME280;55638;51.122;13.606;2023-05-20T04:50:19;100862.28;;;12.01;53.37
68656;BME280;55638;51.122;13.606;2023-05-20T04:51:52;100862.03;;;12.04;53.41
68656;BME280;55638;51.122;13.606;2023-05-20T04:53:26;100860.03;;;12.06;53.28
68656;BME280;55638;51.122;13.606;2023-05-20T04:54:57;100859.81;;;12.09;53.41
68656;BME280;55638;51.122;13.606;2023-05-20T04:56:32;100854.28;;;12.11;53.10
68656;BME280;55638;51.122;13.606;2023-05-20T04:58:04;100852.34;;;12.13;53.28
68656;BME280;55638;51.122;13.606;2023-05-20T04:59:36;100850.25;;;12.16;53.61
68656;BME280;55638;51.122;13.606;2023-05-20T05:01:08;100853.66;;;12.18;53.33
68656;BME280;55638;51.122;13.606;2023-05-20T05:02:40;100847.16;;;12.21;53.03
68656;BME280;55638;51.122;13.606;2023-05-20T05:04:12;100845.94;;;12.25;53.23
68656;BME280;55638;51.122;13.606;2023-05-20T05:05:44;100839.41;;;12.27;53.25
68656;BME280;55638;51.122;13.606;2023-05-20T05:07:16;100845.56;;;12.29;53.38
68656;BME280;55638;51.122;13.606;2023-05-20T05:08:48;100842.50;;;12.34;53.29
68656;BME280;55638;51.122;13.606;2023-05-20T05:10:20;100845.81;;;12.38;53.36
68656;BME280;55638;51.122;13.606;2023-05-20T05:11:53;100844.56;;;12.42;53.15
68656;BME280;55638;51.122;13.606;2023-05-20T05:13:26;100848.88;;;12.44;53.20
68656;BME280;55638;51.122;13.606;2023-05-20T05:14:58;100850.38;;;12.48;53.14
68656;BME280;55638;51.122;13.606;2023-05-20T05:16:32;100850.09;;;12.51;53.02
68656;BME280;55638;51.122;13.606;2023-05-20T05:18:04;100839.91;;;12.55;53.04
68656;BME280;55638;51.122;13.606;2023-05-20T05:19:37;100848.72;;;12.57;52.92
68656;BME280;55638;51.122;13.606;2023-05-20T05:21:09;100848.38;;;12.62;52.83
68656;BME280;55638;51.122;13.606;2023-05-20T05:22:42;100844.44;;;12.66;52.70
68656;BME280;55638;51.122;13.606;2023-05-20T05:24:14;100837.16;;;12.66;52.50
68656;BME280;55638;51.122;13.606;2023-05-20T05:25:50;100850.59;;;12.68;53.19
68656;BME280;55638;51.122;13.606;2023-05-20T05:27:22;100839.63;;;12.69;52.88
68656;BME280;55638;51.122;13.606;2023-05-20T05:28:54;100834.81;;;12.73;53.03
68656;BME280;55638;51.122;13.606;2023-05-20T05:30:26;100839.97;;;12.76;53.12
68656;BME280;55638;51.122;13.606;2023-05-20T05:31:58;100844.16;;;12.80;52.94
68656;BME280;55638;51.122;13.606;2023-05-20T05:33:30;100844.78;;;12.84;52.74
68656;BME280;55638;51.122;13.606;2023-05-20T05:35:03;100848.06;;;12.87;52.79
68656;BME280;55638;51.122;13.606;2023-05-20T05:36:39;100847.97;;;12.89;52.88
68656;BME280;55638;51.122;13.606;2023-05-20T05:38:11;100846.72;;;12.93;52.70
68656;BME280;55638;51.122;13.606;2023-05-20T05:39:43;100846.22;;;12.99;52.38
68656;BME280;55638;51.122;13.606;2023-05-20T05:41:15;100848.06;;;12.98;52.80
68656;BME280;55638;51.122;13.606;2023-05-20T05:42:47;100846.94;;;13.01;52.64
68656;BME280;55638;51.122;13.606;2023-05-20T05:44:19;100853.97;;;13.04;52.49
68656;BME280;55638;51.122;13.606;2023-05-20T05:45:51;100851.84;;;13.07;52.47
68656;BME280;55638;51.122;13.606;2023-05-20T05:47:23;100849.00;;;13.09;52.37
68656;BME280;55638;51.122;13.606;2023-05-20T05:49:00;100853.31;;;13.11;52.42
68656;BME280;55638;51.122;13.606;2023-05-20T05:50:32;100862.03;;;13.15;52.50
68656;BME280;55638;51.122;13.606;2023-05-20T05:52:04;100857.47;;;13.15;52.57
68656;BME280;55638;51.122;13.606;2023-05-20T05:53:36;100853.75;;;13.16;52.48
68656;BME280;55638;51.122;13.606;2023-05-20T05:55:09;100856.22;;;13.19;52.61
68656;BME280;55638;51.122;13.606;2023-05-20T05:56:41;100853.25;;;13.22;52.21
68656;BME280;55638;51.122;13.606;2023-05-20T05:58:13;100846.88;;;13.24;52.14
68656;BME280;55638;51.122;13.606;2023-05-20T05:59:45;100846.47;;;13.28;51.98
68656;BME280;55638;51.122;13.606;2023-05-20T06:01:17;100850.03;;;13.29;52.21
68656;BME280;55638;51.122;13.606;2023-05-20T06:02:50;100842.66;;;13.31;52.06
68656;BME280;55638;51.122;13.606;2023-05-20T06:04:34;100838.94;;;13.32;51.97
68656;BME280;55638;51.122;13.606;2023-05-20T06:06:06;100842.50;;;13.32;52.05
68656;BME280;55638;51.122;13.606;2023-05-20T06:07:38;100835.22;;;13.33;51.95
68656;BME280;55638;51.122;13.606;2023-05-20T06:09:10;100838.84;;;13.33;51.95
68656;BME280;55638;51.122;13.606;2023-05-20T06:10:47;100846.06;;;13.33;52.19
68656;BME280;55638;51.122;13.606;2023-05-20T06:12:32;100844.94;;;13.35;51.89
68656;BME280;55638;51.122;13.606;2023-05-20T06:14:03;100837.69;;;13.36;51.88
68656;BME280;55638;51.122;13.606;2023-05-20T06:15:35;100840.38;;;13.36;52.00
68656;BME280;55638;51.122;13.606;2023-05-20T06:17:07;100832.53;;;13.33;52.28
68656;BME280;55638;51.122;13.606;2023-05-20T06:18:39;100833.25;;;13.35;51.95
68656;BME280;55638;51.122;13.606;2023-05-20T06:20:12;100834.13;;;13.35;52.08
68656;BME280;55638;51.122;13.606;2023-05-20T06:21:44;100835.88;;;13.36;52.14
68656;BME280;55638;51.122;13.606;2023-05-20T06:23:16;100833.00;;;13.38;52.12
68656;BME280;55638;51.122;13.606;2023-05-20T06:24:59;100837.16;;;13.42;52.06
68656;BME280;55638;51.122;13.606;2023-05-20T06:26:34;100838.75;;;13.44;52.23
68656;BME280;55638;51.122;13.606;2023-05-20T06:28:06;100840.34;;;13.47;52.35
68656;BME280;55638;51.122;13.606;2023-05-20T06:29:39;100833.81;;;13.50;52.50
68656;BME280;55638;51.122;13.606;2023-05-20T06:31:14;100835.13;;;13.55;52.72
68656;BME280;55638;51.122;13.606;2023-05-20T06:32:47;100834.75;;;13.60;52.93
68656;BME280;55638;51.122;13.606;2023-05-20T06:34:19;100845.50;;;13.71;52.33
68656;BME280;55638;51.122;13.606;2023-05-20T06:35:52;100839.31;;;13.80;52.16
68656;BME280;55638;51.122;13.606;2023-05-20T06:37:24;100832.34;;;13.87;52.31
68656;BME280;55638;51.122;13.606;2023-05-20T06:38:58;100835.97;;;13.98;51.99
68656;BME280;55638;51.122;13.606;2023-05-20T06:40:31;100832.63;;;14.05;52.25
68656;BME280;55638;51.122;13.606;2023-05-20T06:42:03;100832.50;;;14.17;51.88
68656;BME280;55638;51.122;13.606;2023-05-20T06:43:39;100830.97;;;14.24;51.83
68656;BME280;55638;51.122;13.606;2023-05-20T06:45:33;100825.44;;;14.35;51.68
68656;BME280;55638;51.122;13.606;2023-05-20T06:47:23;100829.06;;;14.45;51.63
68656;BME280;55638;51.122;13.606;2023-05-20T06:48:55;100824.78;;;14.52;51.55
68656;BME280;55638;51.122;13.606;2023-05-20T06:50:27;100833.09;;;14.60;51.26
68656;BME280;55638;51.122;13.606;2023-05-20T06:51:59;100831.41;;;14.69;50.88
68656;BME280;55638;51.122;13.606;2023-05-20T06:53:32;100820.88;;;14.76;50.82
68656;BME280;55638;51.122;13.606;2023-05-20T06:55:04;100830.47;;;14.80;50.71
68656;BME280;55638;51.122;13.606;2023-05-20T06:56:38;100818.16;;;14.85;50.79
68656;BME280;55638;51.122;13.606;2023-05-20T06:58:10;100817.75;;;14.90;50.68
68656;BME280;55638;51.122;13.606;2023-05-20T06:59:43;100814.47;;;14.96;50.59
68656;BME280;55638;51.122;13.606;2023-05-20T07:01:24;100822.91;;;15.03;50.59
68656;BME280;55638;51.122;13.606;2023-05-20T07:02:56;100817.78;;;15.10;49.83
68656;BME280;55638;51.122;13.606;2023-05-20T07:04:28;100811.06;;;15.14;49.98
68656;BME280;55638;51.122;13.606;2023-05-20T07:06:01;100815.19;;;15.18;50.05
68656;BME280;55638;51.122;13.606;2023-05-20T07:07:33;100814.78;;;15.22;49.94
68656;BME280;55638;51.122;13.606;2023-05-20T07:09:05;100812.34;;;15.29;49.72
68656;BME280;55638;51.122;13.606;2023-05-20T07:10:37;100812.75;;;15.34;49.37
68656;BME280;55638;51.122;13.606;2023-05-20T07:12:10;100810.63;;;15.38;49.66
68656;BME280;55638;51.122;13.606;2023-05-20T07:13:41;100804.88;;;15.41;49.35
68656;BME280;55638;51.122;13.606;2023-05-20T07:15:13;100801.88;;;15.44;49.22
68656;BME280;55638;51.122;13.606;2023-05-20T07:16:46;100809.72;;;15.47;49.26
68656;BME280;55638;51.122;13.606;2023-05-20T07:18:18;100802.06;;;15.52;48.93
68656;BME280;55638;51.122;13.606;2023-05-20T07:19:56;100795.19;;;15.58;48.29
68656;BME280;55638;51.122;13.606;2023-05-20T07:21:28;100803.75;;;15.63;48.51
68656;BME280;55638;51.122;13.606;2023-05-20T07:23:09;100797.63;;;15.61;48.47
68656;BME280;55638;51.122;13.606;2023-05-20T07:24:45;100791.16;;;15.62;48.38
68656;BME280;55638;51.122;13.606;2023-05-20T07:26:17;100790.16;;;15.63;48.83
68656;BME280;55638;51.122;13.606;2023-05-20T07:27:49;100795.47;;;15.64;48.89
68656;BME280;55638;51.122;13.606;2023-05-20T07:29:21;100798.72;;;15.68;48.78
68656;BME280;55638;51.122;13.606;2023-05-20T07:30:53;100799.13;;;15.73;49.03
68656;BME280;55638;51.122;13.606;2023-05-20T07:32:31;100800.56;;;15.77;48.86
68656;BME280;55638;51.122;13.606;2023-05-20T07:34:03;100795.69;;;15.81;48.61
68656;BME280;55638;51.122;13.606;2023-05-20T07:35:35;100789.13;;;15.83;48.52
68656;BME280;55638;51.122;13.606;2023-05-20T07:37:07;100792.53;;;15.85;48.60
68656;BME280;55638;51.122;13.606;2023-05-20T07:38:41;100794.94;;;15.88;48.76
68656;BME280;55638;51.122;13.606;2023-05-20T07:40:33;100785.34;;;15.94;48.49
68656;BME280;55638;51.122;13.606;2023-05-20T07:42:07;100794.19;;;15.96;48.72
68656;BME280;55638;51.122;13.606;2023-05-20T07:43:41;100800.22;;;15.99;48.85
68656;BME280;55638;51.122;13.606;2023-05-20T07:45:13;100793.47;;;16.04;48.55
68656;BME280;55638;51.122;13.606;2023-05-20T07:46:45;100802.00;;;16.09;48.59
68656;BME280;55638;51.122;13.606;2023-05-20T07:48:17;100796.16;;;16.13;48.26
68656;BME280;55638;51.122;13.606;2023-05-20T07:49:49;100798.41;;;16.18;48.44
68656;BME280;55638;51.122;13.606;2023-05-20T07:51:21;100796.09;;;16.23;48.36
68656;BME280;55638;51.122;13.606;2023-05-20T07:52:52;100790.75;;;16.31;48.87
68656;BME280;55638;51.122;13.606;2023-05-20T07:54:29;100795.50;;;16.39;48.43
68656;BME280;55638;51.122;13.606;2023-05-20T07:56:01;100790.00;;;16.49;48.55
68656;BME280;55638;51.122;13.606;2023-05-20T07:57:33;100781.06;;;16.56;48.82
68656;BME280;55638;51.122;13.606;2023-05-20T07:59:05;100790.84;;;16.67;48.40
68656;BME280;55638;51.122;13.606;2023-05-20T08:00:43;100788.63;;;16.80;48.42